Time;durP1;ratioP1;P1;durP2;ratioP2;P2;SDS_P1;SDS_P2;PMS_P1;PMS_P2;Temp;Humidity;BMP_temperature;BMP_pressure;BME280_temperature;BME280_humidity;BME280_pressure;Samples;Min_cycle;Max_cycle;Signal;HPM_P1;HPM_P2
2022/05/27 00:01:44;;;;;;;10.95;2.88;;;;;;;17.15;55.34;100918.84;7396738;19;20481;-69
2022/05/27 00:04:13;;;;;;;8.32;2.53;;;;;;;17.16;55.23;100919.69;7399479;19;20032;-67
2022/05/27 00:06:41;;;;;;;6.22;2.85;;;;;;;17.17;55.42;100916.97;7397944;19;20391;-67
2022/05/27 00:09:09;;;;;;;6.85;2.97;;;;;;;17.16;55.17;100923.22;7398633;19;20031;-68
2022/05/27 00:11:37;;;;;;;5.15;2.63;;;;;;;17.16;55.03;100917.06;7399083;19;20039;-67
2022/05/27 00:14:05;;;;;;;4.57;2.22;;;;;;;17.15;55.36;100924.16;7399084;19;20035;-68
2022/05/27 00:16:36;;;;;;;5.82;2.47;;;;;;;17.14;55.77;100938.34;7398975;19;20014;-68
2022/05/27 00:19:04;;;;;;;12.77;3.42;;;;;;;17.09;56.57;100933.22;7396911;19;20026;-67
2022/05/27 00:21:32;;;;;;;8.88;2.90;;;;;;;17.01;58.50;100963.66;7396486;19;20018;-67
2022/05/27 00:24:01;;;;;;;6.43;3.20;;;;;;;16.91;58.57;100942.91;7398350;19;20015;-68
2022/05/27 00:26:29;;;;;;;6.45;2.63;;;;;;;16.80;59.80;100941.63;7397215;19;20381;-67
2022/05/27 00:28:57;;;;;;;4.35;3.13;;;;;;;16.66;60.47;100935.16;7395813;19;20482;-68
2022/05/27 00:31:26;;;;;;;9.30;3.60;;;;;;;16.53;61.39;100928.66;7396242;19;20018;-67
2022/05/27 00:33:56;;;;;;;5.82;3.08;;;;;;;16.43;62.09;100923.78;7398449;19;20021;-67
2022/05/27 00:36:31;;;;;;;10.07;4.00;;;;;;;16.35;62.76;100928.56;7396210;19;20018;-68
2022/05/27 00:39:06;;;;;;;5.82;4.03;;;;;;;16.24;63.57;100931.66;7396373;19;20029;-68
2022/05/27 00:41:34;;;;;;;7.90;4.63;;;;;;;16.14;64.16;100935.63;7398566;19;20049;-68
2022/05/27 00:44:02;;;;;;;9.25;4.80;;;;;;;16.00;65.04;100930.91;7395956;19;20031;-68
2022/05/27 00:46:34;;;;;;;7.38;4.93;;;;;;;15.90;65.42;100926.91;7395805;19;20031;-68
2022/05/27 00:49:13;;;;;;;6.13;5.22;;;;;;;15.83;66.91;100931.56;7397237;19;20386;-68
2022/05/27 00:51:53;;;;;;;8.10;5.43;;;;;;;15.74;69.27;100918.69;7397553;19;20481;-68
2022/05/27 00:54:25;;;;;;;7.03;5.55;;;;;;;15.66;68.10;100923.44;7398241;19;20026;-68
2022/05/27 00:56:58;;;;;;;8.05;5.47;;;;;;;15.59;68.87;100917.53;7395966;19;20014;-68
2022/05/27 00:59:33;;;;;;;10.48;6.53;;;;;;;15.48;68.84;100925.91;7395863;19;20014;-68
2022/05/27 01:02:01;;;;;;;12.15;6.25;;;;;;;15.38;69.39;100925.41;7397255;19;20010;-68
2022/05/27 01:04:35;;;;;;;10.25;7.18;;;;;;;15.32;70.08;100926.47;7397115;19;20488;-68
2022/05/27 01:07:05;;;;;;;8.73;6.57;;;;;;;15.26;70.19;100921.44;7396268;19;20426;-68
2022/05/27 01:09:34;;;;;;;8.77;7.25;;;;;;;15.20;72.31;100929.59;7397681;19;20048;-68
2022/05/27 01:12:18;;;;;;;12.63;7.75;;;;;;;15.11;72.96;100928.19;7397184;19;20035;-68
2022/05/27 01:15:03;;;;;;;11.15;8.25;;;;;;;15.02;73.41;100931.16;7396352;19;20018;-68
2022/05/27 01:17:48;;;;;;;12.27;9.20;;;;;;;14.92;75.03;100928.00;7398226;19;20371;-68
2022/05/27 01:20:27;;;;;;;12.32;10.05;;;;;;;14.76;76.99;100946.19;7395225;19;20019;-68
2022/05/27 01:23:44;;;;;;;18.15;11.23;;;;;;;14.61;81.79;100937.00;7396486;19;20473;-68
2022/05/27 01:26:44;;;;;;;12.93;10.48;;;;;;;14.36;83.05;100944.91;7394942;19;20066;-67
2022/05/27 01:29:40;;;;;;;14.05;11.85;;;;;;;14.14;84.18;100935.09;7395090;19;20019;-67
2022/05/27 01:32:16;;;;;;;15.40;12.57;;;;;;;13.94;88.17;100932.22;7395209;19;20045;-67
2022/05/27 01:34:55;;;;;;;20.75;13.70;;;;;;;13.81;86.21;100923.88;7396822;19;20032;-67
2022/05/27 01:37:32;;;;;;;14.57;12.50;;;;;;;13.69;86.19;100923.34;7391162;19;20011;-67
2022/05/27 01:40:10;;;;;;;18.17;13.07;;;;;;;13.61;85.64;100927.13;7395328;19;20019;-67
2022/05/27 01:42:45;;;;;;;20.50;14.88;;;;;;;13.57;85.92;100922.88;7394859;19;20022;-67
2022/05/27 01:45:20;;;;;;;17.48;14.57;;;;;;;13.52;87.09;100916.00;7396155;19;20018;-67
2022/05/27 01:47:58;;;;;;;19.60;14.88;;;;;;;13.51;85.74;100918.69;7395232;19;20019;-67
2022/05/27 01:50:34;;;;;;;18.52;14.80;;;;;;;13.50;87.10;100917.81;7394240;19;20026;-67
2022/05/27 01:53:08;;;;;;;16.60;13.48;;;;;;;13.48;89.40;100918.75;7395575;19;20485;-67
2022/05/27 01:55:41;;;;;;;16.80;14.23;;;;;;;13.46;87.21;100915.31;7394553;19;20022;-67
2022/05/27 01:58:14;;;;;;;17.60;13.38;;;;;;;13.44;87.61;100910.06;7395902;19;20019;-67
2022/05/27 02:00:45;;;;;;;17.67;13.48;;;;;;;13.44;87.20;100907.44;7394082;19;20114;-67
2022/05/27 02:03:21;;;;;;;17.45;12.68;;;;;;;13.44;88.47;100904.81;7393656;19;20481;-67
2022/05/27 02:05:54;;;;;;;17.52;13.30;;;;;;;13.43;88.77;100896.97;7394060;19;20018;-67
2022/05/27 02:08:27;;;;;;;16.05;11.88;;;;;;;13.42;87.88;100893.47;7394039;19;20028;-67
2022/05/27 02:11:00;;;;;;;16.40;12.00;;;;;;;13.44;88.37;100882.88;7393656;19;20025;-67
2022/05/27 02:13:38;;;;;;;15.50;12.40;;;;;;;13.43;89.03;100887.25;7394123;19;20027;-67
2022/05/27 02:16:07;;;;;;;14.27;11.10;;;;;;;13.42;89.44;100890.84;7395320;19;20024;-67
2022/05/27 02:18:42;;;;;;;12.90;10.77;;;;;;;13.42;89.25;100888.19;7395832;19;20423;-67
2022/05/27 02:21:14;;;;;;;11.55;10.07;;;;;;;13.41;90.37;100882.94;7395259;19;20018;-67
2022/05/27 02:23:48;;;;;;;13.82;10.35;;;;;;;13.40;90.16;100886.53;7395210;19;20031;-67
2022/05/27 02:26:19;;;;;;;11.02;10.02;;;;;;;13.39;90.41;100885.66;7395081;19;20018;-67
2022/05/27 02:28:51;;;;;;;14.50;11.05;;;;;;;13.40;90.13;100890.00;7393314;19;20018;-67
2022/05/27 02:31:23;;;;;;;12.98;10.23;;;;;;;13.39;89.95;100890.91;7394336;19;20489;-67
2022/05/27 02:36:44;;;;;;;12.02;10.35;;;;;;;13.40;90.51;100882.09;7393293;19;20011;-67
2022/05/27 02:39:12;;;;;;;12.63;9.65;;;;;;;13.41;90.14;100890.84;7393492;19;20392;-67
2022/05/27 02:41:48;;;;;;;16.27;11.05;;;;;;;13.41;91.63;100886.47;7394384;19;20036;-67
2022/05/27 02:44:30;;;;;;;12.63;10.35;;;;;;;13.40;90.91;100887.38;7393050;19;20019;-67
2022/05/27 02:47:07;;;;;;;12.98;11.15;;;;;;;13.40;92.61;100886.53;7394449;19;20023;-67
2022/05/27 02:49:55;;;;;;;18.52;13.02;;;;;;;13.38;93.42;100896.25;7400339;19;20369;-67
2022/05/27 02:52:34;;;;;;;18.63;12.27;;;;;;;13.35;92.95;100891.91;7402276;19;20032;-67
2022/05/27 02:55:11;;;;;;;15.32;13.25;;;;;;;13.33;92.80;100886.69;7402647;19;20469;-67
2022/05/27 02:57:45;;;;;;;16.30;12.73;;;;;;;13.30;93.15;100872.72;7398900;19;20018;-67
2022/05/27 03:00:17;;;;;;;16.83;14.57;;;;;;;13.30;93.06;100881.50;7398976;19;20031;-67
2022/05/27 03:02:46;;;;;;;24.77;16.52;;;;;;;13.29;94.84;100890.28;7399094;19;20040;-67
2022/05/27 03:05:20;;;;;;;15.98;13.77;;;;;;;13.29;94.11;100877.13;7398223;19;20485;-67
2022/05/27 03:08:08;;;;;;;21.35;15.10;;;;;;;13.29;95.27;100871.84;7400543;19;20031;-67
2022/05/27 03:10:46;;;;;;;17.67;14.27;;;;;;;13.29;93.12;100865.72;7398554;19;20093;-67
2022/05/27 03:13:29;;;;;;;15.38;13.82;;;;;;;13.28;93.94;100845.56;7398777;19;20018;-68
2022/05/27 03:16:09;;;;;;;16.98;14.07;;;;;;;13.27;93.80;100855.25;7398975;19;20028;-67
2022/05/27 03:18:49;;;;;;;17.08;14.30;;;;;;;13.28;95.07;100858.72;7401366;19;20044;-67
2022/05/27 03:21:29;;;;;;;19.02;14.13;;;;;;;13.27;94.49;100851.72;7398806;19;20031;-67
2022/05/27 03:24:21;;;;;;;14.15;12.40;;;;;;;13.27;94.22;100857.88;7398297;19;20474;-68
2022/05/27 03:27:05;;;;;;;15.20;12.65;;;;;;;13.27;94.81;100862.28;7401685;19;20026;-68
2022/05/27 03:29:45;;;;;;;16.83;14.18;;;;;;;13.26;94.66;100858.78;7400455;19;20031;-68
2022/05/27 03:32:20;;;;;;;17.58;13.88;;;;;;;13.25;94.99;100862.31;7400723;19;20022;-68
2022/05/27 03:34:53;;;;;;;16.50;13.73;;;;;;;13.27;93.82;100862.28;7398411;19;20022;-67
2022/05/27 03:37:32;;;;;;;15.73;14.13;;;;;;;13.27;94.06;100860.53;7397659;19;20023;-67
2022/05/27 03:40:07;;;;;;;15.77;14.02;;;;;;;13.28;93.60;100861.38;7397594;19;20380;-67
2022/05/27 03:42:38;;;;;;;16.20;13.85;;;;;;;13.31;93.75;100858.66;7400909;19;20018;-67
2022/05/27 03:45:09;;;;;;;16.17;12.75;;;;;;;13.30;95.15;100862.19;7398473;19;20027;-67
2022/05/27 03:47:39;;;;;;;18.63;13.95;;;;;;;13.31;94.55;100861.28;7399832;19;20018;-68
2022/05/27 03:50:10;;;;;;;17.00;14.00;;;;;;;13.29;94.12;100865.72;7397501;19;20015;-67
2022/05/27 03:52:44;;;;;;;18.63;14.18;;;;;;;13.30;94.56;100867.47;7400304;19;20015;-67
2022/05/27 03:55:17;;;;;;;16.10;13.85;;;;;;;13.28;95.06;100864.00;7397526;19;20040;-67
2022/05/27 03:57:45;;;;;;;16.33;14.10;;;;;;;13.28;94.28;100861.38;7400711;19;20070;-68
2022/05/27 04:00:16;;;;;;;16.52;14.45;;;;;;;13.27;94.09;100860.53;7395150;19;20015;-68
2022/05/27 04:02:45;;;;;;;16.95;14.65;;;;;;;13.27;94.75;100868.41;7397779;19;20018;-68
2022/05/27 04:05:16;;;;;;;19.50;15.77;;;;;;;13.27;94.51;100865.78;7399319;19;20370;-68
2022/05/27 04:07:48;;;;;;;20.08;16.40;;;;;;;13.28;94.55;100861.38;7396932;19;20365;-68
2022/05/27 04:10:16;;;;;;;20.23;16.35;;;;;;;13.27;96.21;100868.41;7398045;19;20019;-68
2022/05/27 04:12:44;;;;;;;21.45;16.52;;;;;;;13.24;96.66;100862.38;7397006;19;20014;-68
2022/05/27 04:15:13;;;;;;;17.98;15.50;;;;;;;13.20;97.46;100870.41;7399642;19;20028;-68
2022/05/27 04:17:42;;;;;;;20.10;14.00;;;;;;;13.11;97.96;100864.53;7396810;19;20028;-68
2022/05/27 04:20:13;;;;;;;18.17;14.52;;;;;;;13.08;98.27;100862.84;7396717;19;20018;-67
2022/05/27 04:22:42;;;;;;;21.42;14.35;;;;;;;13.00;99.29;100865.72;7399731;19;20025;-68
2022/05/27 04:25:15;;;;;;;18.63;13.68;;;;;;;12.95;98.76;100862.34;7399225;19;20031;-67
2022/05/27 04:27:44;;;;;;;18.98;14.23;;;;;;;12.89;99.47;100852.00;7398224;19;20501;-67
2022/05/27 04:30:13;;;;;;;19.42;13.43;;;;;;;12.84;99.17;100849.50;7396994;19;20473;-67
2022/05/27 04:32:41;;;;;;;15.35;12.30;;;;;;;12.79;99.83;100846.16;7397069;19;20014;-68
2022/05/27 04:35:11;;;;;;;16.98;11.43;;;;;;;12.75;98.64;100834.00;7396407;19;20015;-67
2022/05/27 04:37:40;;;;;;;11.45;7.13;;;;;;;12.69;98.25;100840.28;7396534;19;20014;-67
2022/05/27 04:40:10;;;;;;;8.13;5.40;;;;;;;12.57;97.78;100845.91;7396407;19;20022;-67
2022/05/27 04:42:40;;;;;;;7.57;5.57;;;;;;;12.43;97.37;100845.44;7398559;19;20014;-67
2022/05/27 04:45:10;;;;;;;6.72;5.18;;;;;;;12.32;97.95;100854.50;7396866;19;20019;-68
2022/05/27 04:47:39;;;;;;;9.60;5.43;;;;;;;12.22;98.18;100871.44;7396270;19;20030;-68
2022/05/27 04:50:11;;;;;;;8.90;4.93;;;;;;;12.11;98.32;100855.91;7396097;19;20018;-67
2022/05/27 04:52:40;;;;;;;10.20;4.85;;;;;;;12.02;98.16;100854.38;7398625;19;20027;-67
2022/05/27 04:55:11;;;;;;;5.60;4.75;;;;;;;11.96;98.71;100856.31;7396311;19;20046;-67
2022/05/27 04:57:44;;;;;;;6.65;4.57;;;;;;;11.89;98.65;100861.69;7398453;19;20018;-67
2022/05/27 05:00:16;;;;;;;11.13;5.47;;;;;;;11.84;98.78;100855.69;7396737;19;20035;-67
2022/05/27 05:02:44;;;;;;;6.47;5.00;;;;;;;11.79;98.87;100861.97;7397632;19;20031;-67
2022/05/27 05:05:14;;;;;;;8.68;5.97;;;;;;;11.76;99.11;100864.69;7395468;19;20011;-67
2022/05/27 05:07:43;;;;;;;7.75;5.90;;;;;;;11.72;99.42;100861.25;7394665;19;20018;-68
2022/05/27 05:10:13;;;;;;;12.60;6.70;;;;;;;11.69;99.40;100856.06;7395490;19;20031;-68
2022/05/27 05:12:44;;;;;;;10.00;7.15;;;;;;;11.67;99.94;100874.50;7397326;19;20031;-67
2022/05/27 05:15:13;;;;;;;11.48;7.18;;;;;;;11.67;100.00;100879.75;7395763;19;20018;-68
2022/05/27 05:17:42;;;;;;;10.68;5.97;;;;;;;11.66;100.00;100877.16;7397238;19;20027;-68
2022/05/27 05:20:33;;;;;;;11.63;7.28;;;;;;;11.64;100.00;100876.34;7395890;19;20014;-68
2022/05/27 05:23:02;;;;;;;12.40;8.43;;;;;;;11.64;100.00;100882.47;7395551;19;20143;-68
2022/05/27 05:25:30;;;;;;;9.45;6.80;;;;;;;11.60;100.00;100882.56;7396735;19;20027;-68
2022/05/27 05:28:01;;;;;;;10.27;7.90;;;;;;;11.63;100.00;100886.00;7396501;19;20014;-67
2022/05/27 05:30:30;;;;;;;8.05;6.85;;;;;;;11.62;100.00;100891.28;7395754;19;20023;-68
2022/05/27 05:32:58;;;;;;;8.88;6.95;;;;;;;11.60;100.00;100898.34;7396804;19;20019;-67
2022/05/27 05:35:27;;;;;;;10.13;7.57;;;;;;;11.60;100.00;100893.97;7396322;19;20034;-67
2022/05/27 05:38:01;;;;;;;11.50;8.20;;;;;;;11.60;100.00;100883.47;7395188;19;20007;-68
2022/05/27 05:40:36;;;;;;;8.10;6.70;;;;;;;11.62;100.00;100900.03;7395011;19;20039;-67
2022/05/27 05:43:07;;;;;;;11.80;7.75;;;;;;;11.62;100.00;100893.94;7396318;19;20018;-68
2022/05/27 05:45:35;;;;;;;9.70;7.68;;;;;;;11.61;100.00;100886.94;7396427;19;20039;-67
2022/05/27 05:48:03;;;;;;;11.40;7.82;;;;;;;11.61;100.00;100887.78;7395817;19;20032;-67
2022/05/27 05:50:33;;;;;;;11.52;7.20;;;;;;;11.61;100.00;100879.91;7394320;19;20529;-67
2022/05/27 05:53:01;;;;;;;12.82;6.72;;;;;;;11.61;100.00;100884.31;7395922;19;20027;-67
2022/05/27 05:55:31;;;;;;;8.23;6.65;;;;;;;11.60;100.00;100875.56;7394276;19;20035;-67
2022/05/27 05:58:00;;;;;;;7.22;6.53;;;;;;;11.59;100.00;100881.72;7397363;19;20018;-67
2022/05/27 06:00:31;;;;;;;7.70;6.55;;;;;;;11.57;100.00;100878.25;7394460;19;20014;-67
2022/05/27 06:02:59;;;;;;;7.18;5.18;;;;;;;11.56;100.00;100871.25;7395940;19;20019;-67
2022/05/27 06:05:27;;;;;;;6.35;5.57;;;;;;;11.54;100.00;100862.56;7393518;19;20036;-66
2022/05/27 06:07:57;;;;;;;6.43;5.50;;;;;;;11.53;99.67;100868.72;7393478;19;20031;-67
2022/05/27 06:10:25;;;;;;;8.95;5.05;;;;;;;11.51;99.54;100853.00;7394248;19;20031;-67
2022/05/27 06:12:54;;;;;;;10.02;5.20;;;;;;;11.52;99.34;100862.59;7395355;19;20011;-67
2022/05/27 06:15:22;;;;;;;11.02;4.90;;;;;;;11.51;99.21;100860.88;7395433;19;20018;-67
2022/05/27 06:17:53;;;;;;;7.22;5.20;;;;;;;11.51;98.98;100870.50;7395377;19;20480;-67
2022/05/27 06:20:22;;;;;;;8.60;4.10;;;;;;;11.50;98.64;100871.41;7393616;19;20010;-67
2022/05/27 06:22:50;;;;;;;4.45;4.05;;;;;;;11.49;98.64;100891.56;7391526;19;20078;-67
2022/05/27 06:25:18;;;;;;;5.45;3.92;;;;;;;11.49;98.52;100877.59;7394343;19;20375;-67
2022/05/27 06:27:46;;;;;;;7.35;3.80;;;;;;;11.47;98.12;100882.84;7394127;19;20035;-66
2022/05/27 06:35:40;;;;;;;4.25;2.90;;;;;;;11.41;97.46;100877.75;7395104;19;20022;-67
2022/05/27 06:38:08;;;;;;;7.55;3.55;;;;;;;11.41;97.15;100865.50;7392757;19;20021;-67
2022/05/27 06:40:37;;;;;;;5.85;3.30;;;;;;;11.40;97.14;100882.16;7392632;19;20018;-67
2022/05/27 06:43:05;;;;;;;6.03;2.83;;;;;;;11.42;97.07;100889.97;7395168;19;20018;-67
2022/05/27 06:45:33;;;;;;;3.30;2.70;;;;;;;11.43;96.88;100888.25;7394769;19;20027;-67
2022/05/27 06:48:06;;;;;;;5.88;3.33;;;;;;;11.40;96.89;100876.03;7394765;19;20032;-67
2022/05/27 06:50:36;;;;;;;5.72;2.75;;;;;;;11.46;96.74;100886.41;7392555;19;20503;-67
2022/05/27 06:53:04;;;;;;;3.70;3.10;;;;;;;11.50;96.87;100885.44;7394378;19;20015;-68
2022/05/27 06:55:33;;;;;;;4.07;2.47;;;;;;;11.56;96.72;100894.91;7394261;19;20007;-67
2022/05/27 06:58:01;;;;;;;5.72;3.50;;;;;;;11.58;96.27;100896.59;7394231;19;20025;-67
2022/05/27 07:00:29;;;;;;;5.15;3.17;;;;;;;11.64;96.64;100902.63;7392198;19;20023;-67
2022/05/27 07:02:57;;;;;;;5.38;2.85;;;;;;;11.69;96.12;100903.38;7393724;19;20035;-67
2022/05/27 07:05:28;;;;;;;4.55;2.78;;;;;;;11.73;95.80;100911.16;7393800;19;20018;-68
2022/05/27 07:07:58;;;;;;;4.80;2.33;;;;;;;11.78;95.69;100897.03;7392117;19;20027;-68
2022/05/27 07:10:27;;;;;;;5.68;2.97;;;;;;;11.83;95.54;100905.69;7391962;19;20021;-68
2022/05/27 07:12:59;;;;;;;5.07;3.15;;;;;;;11.86;95.49;100906.47;7391788;19;20390;-67
2022/05/27 07:15:29;;;;;;;6.63;2.95;;;;;;;11.94;95.42;100905.41;7393612;19;20022;-68
2022/05/27 07:17:58;;;;;;;7.15;3.03;;;;;;;12.03;95.91;100902.56;7391947;19;20018;-68
2022/05/27 07:20:28;;;;;;;4.38;2.90;;;;;;;12.11;95.17;100890.09;7391653;19;20039;-68
2022/05/27 07:22:57;;;;;;;4.85;3.33;;;;;;;12.16;94.62;100898.75;7392377;19;20488;-68
2022/05/27 07:25:25;;;;;;;9.85;3.75;;;;;;;12.25;94.50;100891.53;7393328;19;20023;-68
2022/05/27 07:27:53;;;;;;;7.35;3.42;;;;;;;12.32;94.35;100893.06;7393217;19;20027;-68
2022/05/27 07:30:22;;;;;;;6.65;3.50;;;;;;;12.39;94.13;100898.13;7390878;19;20023;-68
2022/05/27 07:32:50;;;;;;;8.77;3.55;;;;;;;12.49;93.90;100908.41;7392542;19;20022;-68
2022/05/27 07:35:18;;;;;;;7.85;3.70;;;;;;;12.57;93.38;100913.47;7398636;19;20019;-68
2022/05/27 07:37:49;;;;;;;3.70;3.20;;;;;;;12.62;93.26;100919.47;7397476;19;20006;-68
2022/05/27 07:40:18;;;;;;;7.15;3.25;;;;;;;12.67;92.94;100918.44;7397233;19;20384;-68
2022/05/27 07:42:47;;;;;;;6.28;3.38;;;;;;;12.73;92.28;100904.25;7400263;19;20015;-68
2022/05/27 07:45:17;;;;;;;4.50;3.13;;;;;;;12.78;92.10;100897.06;7400218;19;20049;-68
2022/05/27 07:47:46;;;;;;;4.45;3.30;;;;;;;12.84;91.23;100902.16;7397856;19;20014;-68
2022/05/27 07:50:15;;;;;;;7.78;4.20;;;;;;;12.89;91.12;100899.41;7397407;19;20018;-68
2022/05/27 07:52:43;;;;;;;7.78;3.45;;;;;;;12.93;90.01;100897.53;7400074;19;20019;-68
2022/05/27 07:55:15;;;;;;;6.55;3.10;;;;;;;12.96;89.07;100898.31;7400284;19;20011;-68
2022/05/27 07:57:44;;;;;;;4.57;2.65;;;;;;;13.00;88.68;100902.59;7400697;19;20144;-68
2022/05/27 08:00:18;;;;;;;8.00;2.97;;;;;;;13.04;88.62;100900.72;7397941;19;20028;-68
2022/05/27 08:02:47;;;;;;;5.38;2.55;;;;;;;13.06;87.22;100898.91;7399956;19;20014;-68
2022/05/27 08:05:18;;;;;;;4.60;2.53;;;;;;;13.09;87.43;100901.47;7396957;19;20480;-68
2022/05/27 08:07:47;;;;;;;4.40;3.08;;;;;;;13.16;87.76;100900.34;7400079;19;20018;-68
2022/05/27 08:10:21;;;;;;;3.72;2.45;;;;;;;13.26;86.04;100913.28;7397501;19;20024;-69
2022/05/27 08:12:49;;;;;;;4.05;1.98;;;;;;;13.32;85.82;100913.06;7400013;19;20014;-68
2022/05/27 08:15:18;;;;;;;5.07;3.05;;;;;;;13.38;85.81;100910.25;7399195;19;20394;-69
2022/05/27 08:17:47;;;;;;;6.90;2.28;;;;;;;13.45;83.78;100917.09;7399164;19;20423;-69
2022/05/27 08:20:19;;;;;;;4.90;2.63;;;;;;;13.49;80.46;100916.06;7397604;19;20035;-69
2022/05/27 08:22:48;;;;;;;6.55;2.15;;;;;;;13.50;82.15;100928.34;7399226;19;20090;-69
2022/05/27 08:25:19;;;;;;;7.38;2.10;;;;;;;13.52;79.10;100915.09;7396403;19;20023;-67
2022/05/27 08:27:47;;;;;;;5.50;1.90;;;;;;;13.55;75.90;100927.31;7397294;19;20018;-67
2022/05/27 08:30:17;;;;;;;5.60;2.03;;;;;;;13.57;75.43;100917.59;7396720;19;20019;-67
2022/05/27 08:32:47;;;;;;;5.82;2.10;;;;;;;13.57;76.17;100907.06;7398809;19;20011;-67
2022/05/27 08:38:07;;;;;;;9.23;2.60;;;;;;;13.64;75.93;100927.06;7395930;19;20015;-68
2022/05/27 08:41:14;;;;;;;6.32;2.28;;;;;;;13.68;71.47;100918.13;7396162;19;20019;-67
2022/05/27 08:43:58;;;;;;;7.72;2.22;;;;;;;13.73;72.29;100918.00;7398011;19;20018;-68
2022/05/27 08:46:34;;;;;;;4.15;2.30;;;;;;;13.82;71.49;100912.41;7397436;19;20041;-68
2022/05/27 08:49:07;;;;;;;3.20;1.48;;;;;;;13.85;71.94;100926.38;7397114;19;20456;-68
2022/05/27 08:51:40;;;;;;;6.22;2.47;;;;;;;13.85;67.52;100901.78;7395716;19;20019;-66
2022/05/27 08:54:12;;;;;;;7.18;1.80;;;;;;;13.86;71.79;100906.13;7398425;19;20044;-66
2022/05/27 08:59:37;;;;;;;6.07;1.80;;;;;;;13.98;68.46;100908.34;7397196;19;20021;-67
2022/05/27 09:02:11;;;;;;;9.05;2.05;;;;;;;14.05;70.17;100906.38;7397966;19;20015;-68
2022/05/27 09:04:48;;;;;;;3.10;1.45;;;;;;;14.12;68.90;100899.97;7395950;19;20373;-68
2022/05/27 09:07:31;;;;;;;5.88;1.70;;;;;;;14.23;68.36;100904.03;7396096;19;20093;-68
2022/05/27 09:10:01;;;;;;;4.85;1.80;;;;;;;14.36;67.44;100892.13;7396464;19;20014;-67
2022/05/27 09:12:41;;;;;;;4.10;1.30;;;;;;;14.44;65.39;100897.13;7397526;19;20359;-68
2022/05/27 09:15:18;;;;;;;3.33;1.88;;;;;;;14.49;64.54;100908.38;7397451;19;20011;-69
2022/05/27 09:17:57;;;;;;;4.10;2.00;;;;;;;14.49;65.48;100906.63;7397596;19;20018;-69
2022/05/27 09:20:42;;;;;;;5.22;1.75;;;;;;;14.49;65.34;100901.34;7395362;19;20019;-69
2022/05/27 09:23:25;;;;;;;7.40;2.13;;;;;;;14.49;62.75;100913.66;7395573;19;20119;-67
2022/05/27 09:26:02;;;;;;;4.68;1.52;;;;;;;14.49;61.76;100900.47;7395613;19;20018;-67
2022/05/27 09:28:46;;;;;;;6.30;1.58;;;;;;;14.51;61.74;100919.78;7395428;19;20018;-68
2022/05/27 09:31:18;;;;;;;8.57;1.63;;;;;;;14.53;61.90;100898.59;7395483;19;20014;-67
2022/05/27 09:33:48;;;;;;;6.20;2.15;;;;;;;14.51;63.32;100893.38;7395985;19;20015;-67
2022/05/27 09:36:20;;;;;;;6.93;1.92;;;;;;;14.56;61.94;100909.03;7394671;19;20032;-67
2022/05/27 09:38:55;;;;;;;5.00;2.00;;;;;;;14.61;61.65;100894.75;7394253;19;20010;-67
2022/05/27 09:41:31;;;;;;;7.78;1.58;;;;;;;14.68;58.58;100919.19;7396118;19;20036;-67
2022/05/27 09:44:18;;;;;;;6.63;1.90;;;;;;;14.73;58.57;100889.97;7393432;19;20019;-68
2022/05/27 09:46:46;;;;;;;6.68;1.77;;;;;;;14.83;57.28;100894.00;7394973;19;20018;-68
2022/05/27 09:49:14;;;;;;;10.65;2.85;;;;;;;14.95;59.84;100890.91;7395401;19;20014;-67
2022/05/27 09:51:43;;;;;;;3.92;1.27;;;;;;;15.14;55.41;100896.34;7394531;19;20028;-67
2022/05/27 09:54:24;;;;;;;6.97;2.00;;;;;;;15.29;58.52;100884.31;7396191;19;20015;-66
2022/05/27 09:57:02;;;;;;;8.75;1.60;;;;;;;15.39;54.53;100900.69;7395582;19;20074;-67
2022/05/27 09:59:38;;;;;;;3.72;1.45;;;;;;;15.42;53.53;100894.41;7394608;19;20019;-67
2022/05/27 10:02:18;;;;;;;5.35;1.42;;;;;;;15.40;52.44;100890.97;7396243;19;20010;-68
2022/05/27 10:04:57;;;;;;;3.72;1.30;;;;;;;15.40;52.86;100877.75;7396136;19;20019;-68
2022/05/27 10:07:28;;;;;;;8.77;2.40;;;;;;;15.40;53.91;100885.69;7395850;19;20372;-68
2022/05/27 10:09:56;;;;;;;4.45;1.25;;;;;;;15.43;54.54;100873.19;7394393;19;20014;-69
2022/05/27 10:12:33;;;;;;;5.75;1.50;;;;;;;15.51;52.18;100874.69;7394982;19;20014;-70
2022/05/27 10:15:05;;;;;;;6.90;1.75;;;;;;;15.59;52.63;100864.66;7395602;19;20018;-69
2022/05/27 10:17:36;;;;;;;6.70;1.65;;;;;;;15.68;52.66;100880.13;7393201;19;20019;-70
2022/05/27 10:20:21;;;;;;;5.20;2.03;;;;;;;15.78;52.76;100870.03;7392760;19;20360;-69
2022/05/27 10:23:04;;;;;;;6.72;1.98;;;;;;;15.89;52.29;100862.53;7394940;19;20078;-68
2022/05/27 10:25:37;;;;;;;4.17;1.40;;;;;;;15.92;51.40;100853.63;7393951;19;20519;-69
2022/05/27 10:28:07;;;;;;;7.60;1.73;;;;;;;15.94;50.84;100851.78;7394430;19;20025;-69
2022/05/27 10:30:42;;;;;;;4.38;1.50;;;;;;;15.98;48.30;100895.69;7392797;19;20014;-69
2022/05/27 10:33:20;;;;;;;4.88;1.75;;;;;;;16.02;48.71;100873.47;7392818;19;20022;-69
2022/05/27 10:35:49;;;;;;;7.22;1.58;;;;;;;16.06;48.64;100860.97;7393056;19;20030;-68
2022/05/27 10:38:44;;;;;;;6.90;1.38;;;;;;;16.13;48.86;100876.50;7392462;19;20015;-69
2022/05/27 10:41:24;;;;;;;8.57;1.95;;;;;;;16.21;48.67;100854.16;7392462;19;20036;-70
2022/05/27 10:44:06;;;;;;;5.15;1.35;;;;;;;16.32;50.92;100874.88;7394616;19;20027;-69
2022/05/27 10:46:44;;;;;;;8.52;2.10;;;;;;;16.42;49.23;100837.31;7393902;19;20365;-70
2022/05/27 10:49:33;;;;;;;7.88;1.98;;;;;;;16.47;49.10;100830.94;7392561;19;20031;-69
2022/05/27 10:52:15;;;;;;;9.15;1.83;;;;;;;16.45;48.13;100860.16;7392229;19;20505;-69
2022/05/27 10:54:57;;;;;;;6.90;1.98;;;;;;;16.35;47.28;100857.06;7394902;19;20018;-69
2022/05/27 11:03:28;;;;;;;7.32;1.90;;;;;;;16.37;47.87;100846.41;7394429;19;20011;-70
2022/05/27 11:06:15;;;;;;;7.22;1.98;;;;;;;16.39;48.66;100834.81;7394430;19;20022;-69
2022/05/27 11:08:53;;;;;;;6.72;2.38;;;;;;;16.44;47.82;100864.59;7395124;19;20367;-69
2022/05/27 11:11:28;;;;;;;5.78;2.13;;;;;;;16.49;47.59;100823.81;7398068;19;20031;-69
2022/05/27 11:17:03;;;;;;;4.28;1.60;;;;;;;16.68;45.99;100842.34;7399657;19;20161;-69
2022/05/27 11:20:06;;;;;;;5.15;1.55;;;;;;;16.81;44.64;100845.28;7399966;19;20023;-69
2022/05/27 11:22:38;;;;;;;5.95;1.73;;;;;;;16.83;45.40;100831.03;7398923;19;20021;-70
2022/05/27 11:25:19;;;;;;;5.60;2.00;;;;;;;16.92;44.03;100830.66;7400676;19;20021;-69
2022/05/27 11:28:03;;;;;;;5.53;1.85;;;;;;;17.02;43.13;100817.84;7400622;19;20018;-69
2022/05/27 11:30:40;;;;;;;5.90;1.60;;;;;;;17.20;42.72;100818.75;7398377;19;20014;-70
2022/05/27 11:33:19;;;;;;;4.90;1.33;;;;;;;17.35;42.73;100834.84;7398505;19;20022;-70
2022/05/27 11:36:10;;;;;;;6.38;1.67;;;;;;;17.42;42.31;100815.03;7397484;19;20473;-70
2022/05/27 11:39:16;;;;;;;4.53;1.70;;;;;;;17.48;42.72;100830.66;7397519;19;20086;-71
2022/05/27 11:42:03;;;;;;;5.10;1.55;;;;;;;17.61;41.69;100809.69;7398855;19;20019;-70
2022/05/27 11:44:41;;;;;;;8.73;2.28;;;;;;;17.72;43.56;100817.97;7397806;19;20010;-70
2022/05/27 11:47:31;;;;;;;6.32;1.10;;;;;;;17.88;43.18;100802.13;7399815;19;20381;-73
2022/05/27 11:50:16;;;;;;;8.25;1.77;;;;;;;18.17;41.06;100804.22;7398523;19;20427;-70
2022/05/27 11:53:04;;;;;;;6.55;1.50;;;;;;;18.34;39.43;100813.97;7400370;19;20014;-69
2022/05/27 11:55:46;;;;;;;3.10;1.20;;;;;;;18.35;38.68;100805.03;7400442;19;20014;-71
2022/05/27 11:58:20;;;;;;;3.63;1.10;;;;;;;18.35;39.35;100800.59;7399544;19;20383;-69
2022/05/27 12:00:52;;;;;;;4.00;1.75;;;;;;;18.31;40.17;100804.34;7397005;19;20429;-69
2022/05/27 12:03:30;;;;;;;3.55;1.23;;;;;;;18.19;38.35;100789.06;7400316;19;20031;-69
2022/05/27 12:06:04;;;;;;;4.70;1.02;;;;;;;18.12;39.97;100796.50;7400384;19;20011;-70
2022/05/27 12:08:40;;;;;;;5.68;1.25;;;;;;;17.88;38.33;100833.97;7397761;19;20015;-67
2022/05/27 12:11:14;;;;;;;8.95;1.85;;;;;;;17.75;40.17;100825.78;7398538;19;20031;-67
2022/05/27 12:13:46;;;;;;;3.63;1.48;;;;;;;17.75;41.31;100804.56;7400017;19;20027;-67